sensor_id;sensor_type;location;lat;lon;timestamp;pressure;altitude;pressure_sealevel;temperature;humidity
57574;BME280;68988;49.000;21.242;2023-07-22T00:02:16;98074.25;;;27.51;42.90
57574;BME280;68988;49.000;21.242;2023-07-22T00:04:41;98070.44;;;27.52;43.06
57574;BME280;68988;49.000;21.242;2023-07-22T00:07:06;98079.03;;;27.55;43.02
57574;BME280;68988;49.000;21.242;2023-07-22T00:09:32;98069.97;;;27.50;43.22
57574;BME280;68988;49.000;21.242;2023-07-22T00:11:59;98074.19;;;27.43;43.38
57574;BME280;68988;49.000;21.242;2023-07-22T00:14:24;98074.38;;;27.46;42.97
57574;BME280;68988;49.000;21.242;2023-07-22T00:16:50;98074.66;;;27.45;43.24
57574;BME280;68988;49.000;21.242;2023-07-22T00:19:15;98071.97;;;27.45;43.04
57574;BME280;68988;49.000;21.242;2023-07-22T00:21:40;98073.28;;;27.47;43.16
57574;BME280;68988;49.000;21.242;2023-07-22T00:24:06;98073.75;;;27.49;42.91
57574;BME280;68988;49.000;21.242;2023-07-22T00:26:31;98070.88;;;27.46;43.36
57574;BME280;68988;49.000;21.242;2023-07-22T00:28:57;98062.50;;;27.47;43.52
57574;BME280;68988;49.000;21.242;2023-07-22T00:31:22;98062.50;;;27.47;43.23
57574;BME280;68988;49.000;21.242;2023-07-22T00:33:47;98065.50;;;27.46;43.21
57574;BME280;68988;49.000;21.242;2023-07-22T00:36:13;98075.66;;;27.49;43.25
57574;BME280;68988;49.000;21.242;2023-07-22T00:38:38;98075.97;;;27.47;43.03
57574;BME280;68988;49.000;21.242;2023-07-22T00:41:05;98083.25;;;27.47;43.35
57574;BME280;68988;49.000;21.242;2023-07-22T00:43:30;98076.28;;;27.46;43.23
57574;BME280;68988;49.000;21.242;2023-07-22T00:45:56;98083.25;;;27.47;43.33
57574;BME280;68988;49.000;21.242;2023-07-22T00:48:22;98082.25;;;27.43;43.38
57574;BME280;68988;49.000;21.242;2023-07-22T00:50:48;98086.84;;;27.42;43.21
57574;BME280;68988;49.000;21.242;2023-07-22T00:53:14;98092.25;;;27.42;43.31
57574;BME280;68988;49.000;21.242;2023-07-22T00:55:39;98085.44;;;27.45;43.54
57574;BME280;68988;49.000;21.242;2023-07-22T00:58:08;98079.25;;;27.44;43.24
57574;BME280;68988;49.000;21.242;2023-07-22T01:00:33;98085.44;;;27.45;43.64
57574;BME280;68988;49.000;21.242;2023-07-22T01:02:59;98076.88;;;27.43;43.71
57574;BME280;68988;49.000;21.242;2023-07-22T01:05:26;98077.88;;;27.47;43.19
57574;BME280;68988;49.000;21.242;2023-07-22T01:07:52;98083.03;;;27.43;43.42
57574;BME280;68988;49.000;21.242;2023-07-22T01:10:18;98078.47;;;27.44;43.34
57574;BME280;68988;49.000;21.242;2023-07-22T01:12:44;98081.66;;;27.46;43.32
57574;BME280;68988;49.000;21.242;2023-07-22T01:15:10;98062.19;;;27.49;43.35
57574;BME280;68988;49.000;21.242;2023-07-22T01:17:39;98064.41;;;27.47;43.62
57574;BME280;68988;49.000;21.242;2023-07-22T01:20:05;98059.50;;;27.49;43.17
57574;BME280;68988;49.000;21.242;2023-07-22T01:22:32;98069.78;;;27.47;43.41
57574;BME280;68988;49.000;21.242;2023-07-22T01:24:58;98066.28;;;27.46;43.51
57574;BME280;68988;49.000;21.242;2023-07-22T01:27:24;98073.56;;;27.46;43.54
57574;BME280;68988;49.000;21.242;2023-07-22T01:29:52;98071.66;;;27.46;43.63
57574;BME280;68988;49.000;21.242;2023-07-22T01:32:17;98073.09;;;27.44;43.43
57574;BME280;68988;49.000;21.242;2023-07-22T01:34:43;98062.81;;;27.46;43.18
57574;BME280;68988;49.000;21.242;2023-07-22T01:37:09;98060.91;;;27.46;43.39
57574;BME280;68988;49.000;21.242;2023-07-22T01:39:35;98061.72;;;27.47;43.35
57574;BME280;68988;49.000;21.242;2023-07-22T01:42:01;98071.50;;;27.43;43.71
57574;BME280;68988;49.000;21.242;2023-07-22T01:44:26;98072.47;;;27.47;43.48
57574;BME280;68988;49.000;21.242;2023-07-22T01:46:52;98074.06;;;27.48;43.20
57574;BME280;68988;49.000;21.242;2023-07-22T01:49:17;98069.97;;;27.50;43.27
57574;BME280;68988;49.000;21.242;2023-07-22T01:51:42;98070.09;;;27.45;43.58
57574;BME280;68988;49.000;21.242;2023-07-22T01:54:08;98060.91;;;27.46;43.48
57574;BME280;68988;49.000;21.242;2023-07-22T01:56:35;98064.19;;;27.43;43.65
57574;BME280;68988;49.000;21.242;2023-07-22T01:59:00;98065.00;;;27.44;43.77
57574;BME280;68988;49.000;21.242;2023-07-22T02:01:26;98070.88;;;27.46;43.58
57574;BME280;68988;49.000;21.242;2023-07-22T02:03:53;98075.47;;;27.45;43.61
57574;BME280;68988;49.000;21.242;2023-07-22T02:06:18;98071.38;;;27.48;44.00
57574;BME280;68988;49.000;21.242;2023-07-22T02:08:44;98079.75;;;27.46;43.52
57574;BME280;68988;49.000;21.242;2023-07-22T02:11:11;98074.66;;;27.45;43.72
57574;BME280;68988;49.000;21.242;2023-07-22T02:13:37;98080.56;;;27.47;43.39
57574;BME280;68988;49.000;21.242;2023-07-22T02:16:02;98080.88;;;27.45;43.61
57574;BME280;68988;49.000;21.242;2023-07-22T02:18:28;98075.97;;;27.47;43.53
57574;BME280;68988;49.000;21.242;2023-07-22T02:20:54;98081.66;;;27.46;43.27
57574;BME280;68988;49.000;21.242;2023-07-22T02:23:20;98081.66;;;27.46;43.32
57574;BME280;68988;49.000;21.242;2023-07-22T02:25:50;98076.75;;;27.48;43.57
57574;BME280;68988;49.000;21.242;2023-07-22T02:28:16;98074.06;;;27.48;43.52
57574;BME280;68988;49.000;21.242;2023-07-22T02:30:45;98075.19;;;27.47;43.60
57574;BME280;68988;49.000;21.242;2023-07-22T02:33:11;98076.75;;;27.48;43.54
57574;BME280;68988;49.000;21.242;2023-07-22T02:35:36;98062.31;;;27.44;43.52
57574;BME280;68988;49.000;21.242;2023-07-22T02:38:02;98065.50;;;27.46;43.45
57574;BME280;68988;49.000;21.242;2023-07-22T02:40:27;98070.72;;;27.42;43.72
57574;BME280;68988;49.000;21.242;2023-07-22T02:42:53;98064.41;;;27.47;43.42
57574;BME280;68988;49.000;21.242;2023-07-22T02:45:18;98068.66;;;27.48;43.39
57574;BME280;68988;49.000;21.242;2023-07-22T02:47:43;98078.66;;;27.47;43.65
57574;BME280;68988;49.000;21.242;2023-07-22T02:50:09;98080.06;;;27.45;43.59
57574;BME280;68988;49.000;21.242;2023-07-22T02:52:34;98087.81;;;27.46;43.66
57574;BME280;68988;49.000;21.242;2023-07-22T02:55:05;98094.03;;;27.47;43.46
57574;BME280;68988;49.000;21.242;2023-07-22T02:57:30;98108.56;;;27.46;43.51
57574;BME280;68988;49.000;21.242;2023-07-22T02:59:56;98108.56;;;27.46;43.67
57574;BME280;68988;49.000;21.242;2023-07-22T03:02:21;98112.34;;;27.45;43.72
57574;BME280;68988;49.000;21.242;2023-07-22T03:04:47;98114.25;;;27.44;43.59
57574;BME280;68988;49.000;21.242;2023-07-22T03:07:12;98117.75;;;27.45;43.84
57574;BME280;68988;49.000;21.242;2023-07-22T03:09:37;98125.53;;;27.46;43.42
57574;BME280;68988;49.000;21.242;2023-07-22T03:12:03;98131.72;;;27.47;43.45
57574;BME280;68988;49.000;21.242;2023-07-22T03:14:29;98129.34;;;27.45;43.63
57574;BME280;68988;49.000;21.242;2023-07-22T03:16:54;98131.72;;;27.47;43.78
57574;BME280;68988;49.000;21.242;2023-07-22T03:19:19;98130.13;;;27.46;43.60
57574;BME280;68988;49.000;21.242;2023-07-22T03:21:44;98128.53;;;27.45;43.73
57574;BME280;68988;49.000;21.242;2023-07-22T03:24:10;98131.72;;;27.47;43.59
57574;BME280;68988;49.000;21.242;2023-07-22T03:26:35;98140.88;;;27.46;43.46
57574;BME280;68988;49.000;21.242;2023-07-22T03:29:01;98137.09;;;27.47;43.55
57574;BME280;68988;49.000;21.242;2023-07-22T03:31:26;98139.81;;;27.47;43.28
57574;BME280;68988;49.000;21.242;2023-07-22T03:33:51;98129.63;;;27.44;43.78
57574;BME280;68988;49.000;21.242;2023-07-22T03:36:17;98131.72;;;27.47;43.36
57574;BME280;68988;49.000;21.242;2023-07-22T03:38:43;98133.28;;;27.48;43.33
57574;BME280;68988;49.000;21.242;2023-07-22T03:41:08;98136.28;;;27.46;43.41
57574;BME280;68988;49.000;21.242;2023-07-22T03:43:34;98137.09;;;27.47;43.63
57574;BME280;68988;49.000;21.242;2023-07-22T03:45:59;98135.69;;;27.49;43.29
57574;BME280;68988;49.000;21.242;2023-07-22T03:48:24;98140.47;;;27.52;43.52
57574;BME280;68988;49.000;21.242;2023-07-22T03:50:50;98145.06;;;27.52;43.67
57574;BME280;68988;49.000;21.242;2023-07-22T03:53:15;98165.81;;;27.51;43.57
57574;BME280;68988;49.000;21.242;2023-07-22T03:55:41;98172.59;;;27.49;43.76
57574;BME280;68988;49.000;21.242;2023-07-22T03:58:06;98169.13;;;27.48;43.68
57574;BME280;68988;49.000;21.242;2023-07-22T04:00:31;98164.22;;;27.50;43.45
57574;BME280;68988;49.000;21.242;2023-07-22T04:02:57;98169.41;;;27.47;43.64
57574;BME280;68988;49.000;21.242;2023-07-22T04:05:22;98168.50;;;27.51;43.57
57574;BME280;68988;49.000;21.242;2023-07-22T04:07:47;98166.59;;;27.52;43.45
57574;BME280;68988;49.000;21.242;2023-07-22T04:10:13;98177.38;;;27.52;43.30
57574;BME280;68988;49.000;21.242;2023-07-22T04:12:38;98173.38;;;27.49;43.75
57574;BME280;68988;49.000;21.242;2023-07-22T04:15:04;98185.56;;;27.47;43.34
57574;BME280;68988;49.000;21.242;2023-07-22T04:17:30;98176.69;;;27.46;43.65
57574;BME280;68988;49.000;21.242;2023-07-22T04:19:56;98163.44;;;27.50;43.58
57574;BME280;68988;49.000;21.242;2023-07-22T04:22:21;98166.50;;;27.57;43.72
57574;BME280;68988;49.000;21.242;2023-07-22T04:24:47;98161.50;;;27.64;43.42
57574;BME280;68988;49.000;21.242;2023-07-22T04:27:16;98163.59;;;27.67;43.08
57574;BME280;68988;49.000;21.242;2023-07-22T04:29:42;98167.75;;;27.74;43.26
57574;BME280;68988;49.000;21.242;2023-07-22T04:32:07;98169.84;;;27.77;43.02
57574;BME280;68988;49.000;21.242;2023-07-22T04:34:33;98169.34;;;27.75;43.32
57574;BME280;68988;49.000;21.242;2023-07-22T04:36:59;98167.03;;;27.82;43.02
57574;BME280;68988;49.000;21.242;2023-07-22T04:39:25;98170.22;;;27.84;43.08
57574;BME280;68988;49.000;21.242;2023-07-22T04:41:51;98165.50;;;27.90;42.66
57574;BME280;68988;49.000;21.242;2023-07-22T04:44:17;98170.59;;;27.91;43.04
57574;BME280;68988;49.000;21.242;2023-07-22T04:46:43;98169.50;;;27.92;42.83
57574;BME280;68988;49.000;21.242;2023-07-22T04:49:08;98159.81;;;27.91;42.91
57574;BME280;68988;49.000;21.242;2023-07-22T04:51:33;98160.72;;;27.86;43.15
57574;BME280;68988;49.000;21.242;2023-07-22T04:53:59;98158.84;;;27.87;42.79
57574;BME280;68988;49.000;21.242;2023-07-22T04:56:24;98156.16;;;27.87;43.00
57574;BME280;68988;49.000;21.242;2023-07-22T04:58:49;98157.72;;;27.88;43.13
57574;BME280;68988;49.000;21.242;2023-07-22T05:01:15;98164.09;;;27.92;42.77
57574;BME280;68988;49.000;21.242;2023-07-22T05:03:41;98159.31;;;27.89;42.63
57574;BME280;68988;49.000;21.242;2023-07-22T05:06:06;98165.41;;;27.95;42.98
57574;BME280;68988;49.000;21.242;2023-07-22T05:08:33;98162.31;;;28.01;42.51
57574;BME280;68988;49.000;21.242;2023-07-22T05:10:58;98172.66;;;28.08;42.83
57574;BME280;68988;49.000;21.242;2023-07-22T05:13:24;98162.84;;;28.12;42.35
57574;BME280;68988;49.000;21.242;2023-07-22T05:15:49;98171.63;;;28.18;42.40
57574;BME280;68988;49.000;21.242;2023-07-22T05:18:15;98171.00;;;28.21;42.23
57574;BME280;68988;49.000;21.242;2023-07-22T05:20:40;98167.63;;;28.15;42.50
57574;BME280;68988;49.000;21.242;2023-07-22T05:23:05;98174.00;;;28.19;42.32
57574;BME280;68988;49.000;21.242;2023-07-22T05:25:31;98170.19;;;28.20;42.33
57574;BME280;68988;49.000;21.242;2023-07-22T05:27:56;98169.59;;;28.23;42.31
57574;BME280;68988;49.000;21.242;2023-07-22T05:30:21;98172.59;;;28.22;42.54
57574;BME280;68988;49.000;21.242;2023-07-22T05:32:47;98170.75;;;28.31;42.33
57574;BME280;68988;49.000;21.242;2023-07-22T05:35:12;98171.56;;;28.32;42.29
57574;BME280;68988;49.000;21.242;2023-07-22T05:37:37;98174.72;;;28.34;42.25
57574;BME280;68988;49.000;21.242;2023-07-22T05:40:03;98177.75;;;28.32;42.24
57574;BME280;68988;49.000;21.242;2023-07-22T05:42:29;98182.53;;;28.35;42.40
57574;BME280;68988;49.000;21.242;2023-07-22T05:44:56;98179.69;;;28.40;42.07
57574;BME280;68988;49.000;21.242;2023-07-22T05:47:22;98196.69;;;28.41;41.92
57574;BME280;68988;49.000;21.242;2023-07-22T05:49:48;98182.59;;;28.44;42.29
57574;BME280;68988;49.000;21.242;2023-07-22T05:52:13;98181.75;;;28.44;42.13
57574;BME280;68988;49.000;21.242;2023-07-22T05:54:38;98180.84;;;28.48;41.99
57574;BME280;68988;49.000;21.242;2023-07-22T05:57:04;98184.03;;;28.50;42.12
57574;BME280;68988;49.000;21.242;2023-07-22T05:59:30;98183.13;;;28.55;41.97
57574;BME280;68988;49.000;21.242;2023-07-22T06:01:56;98182.59;;;28.53;42.01
57574;BME280;68988;49.000;21.242;2023-07-22T06:04:21;98181.22;;;28.55;41.75
57574;BME280;68988;49.000;21.242;2023-07-22T06:06:47;98174.22;;;28.54;41.90
57574;BME280;68988;49.000;21.242;2023-07-22T06:09:12;98171.22;;;28.56;41.81
57574;BME280;68988;49.000;21.242;2023-07-22T06:11:37;98176.59;;;28.56;41.89
57574;BME280;68988;49.000;21.242;2023-07-22T06:14:03;98171.72;;;28.58;41.92
57574;BME280;68988;49.000;21.242;2023-07-22T06:16:28;98169.53;;;28.60;42.08
57574;BME280;68988;49.000;21.242;2023-07-22T06:18:53;98170.00;;;28.62;41.96
57574;BME280;68988;49.000;21.242;2023-07-22T06:21:19;98178.59;;;28.64;41.67
57574;BME280;68988;49.000;21.242;2023-07-22T06:23:44;98182.09;;;28.65;42.03
57574;BME280;68988;49.000;21.242;2023-07-22T06:26:09;98187.16;;;28.66;41.91
57574;BME280;68988;49.000;21.242;2023-07-22T06:28:35;98186.53;;;28.69;42.01
57574;BME280;68988;49.000;21.242;2023-07-22T06:31:00;98188.47;;;28.69;41.83
57574;BME280;68988;49.000;21.242;2023-07-22T06:33:25;98181.63;;;28.71;41.78
57574;BME280;68988;49.000;21.242;2023-07-22T06:35:51;98186.25;;;28.71;42.08
57574;BME280;68988;49.000;21.242;2023-07-22T06:38:16;98182.13;;;28.73;41.93
57574;BME280;68988;49.000;21.242;2023-07-22T06:40:42;98185.00;;;28.77;41.98
57574;BME280;68988;49.000;21.242;2023-07-22T06:43:07;98193.41;;;28.75;41.72
57574;BME280;68988;49.000;21.242;2023-07-22T06:45:32;98196.88;;;28.76;41.48
57574;BME280;68988;49.000;21.242;2023-07-22T06:47:58;98196.56;;;28.78;41.67
57574;BME280;68988;49.000;21.242;2023-07-22T06:50:23;98197.88;;;28.80;41.79
57574;BME280;68988;49.000;21.242;2023-07-22T06:52:49;98206.44;;;28.82;41.91
57574;BME280;68988;49.000;21.242;2023-07-22T06:55:14;98202.34;;;28.85;41.83
57574;BME280;68988;49.000;21.242;2023-07-22T06:57:40;98207.72;;;28.85;41.67
57574;BME280;68988;49.000;21.242;2023-07-22T07:00:06;98205.03;;;28.85;41.50
57574;BME280;68988;49.000;21.242;2023-07-22T07:02:31;98221.69;;;28.87;41.71
57574;BME280;68988;49.000;21.242;2023-07-22T07:04:57;98229.00;;;28.86;41.71
57574;BME280;68988;49.000;21.242;2023-07-22T07:07:22;98232.50;;;28.87;41.61
57574;BME280;68988;49.000;21.242;2023-07-22T07:09:47;98239.81;;;28.86;41.61
57574;BME280;68988;49.000;21.242;2023-07-22T07:12:13;98241.25;;;28.92;41.58
57574;BME280;68988;49.000;21.242;2023-07-22T07:14:38;98241.09;;;28.89;41.39
57574;BME280;68988;49.000;21.242;2023-07-22T07:17:04;98236.19;;;28.91;41.67
57574;BME280;68988;49.000;21.242;2023-07-22T07:19:29;98241.09;;;28.89;41.67
57574;BME280;68988;49.000;21.242;2023-07-22T07:21:55;98237.59;;;28.88;41.69
57574;BME280;68988;49.000;21.242;2023-07-22T07:24:20;98249.66;;;28.91;41.61
57574;BME280;68988;49.000;21.242;2023-07-22T07:26:46;98254.28;;;28.90;41.66
57574;BME280;68988;49.000;21.242;2023-07-22T07:29:11;98255.06;;;28.91;41.54
57574;BME280;68988;49.000;21.242;2023-07-22T07:31:38;98249.66;;;28.91;41.49
57574;BME280;68988;49.000;21.242;2023-07-22T07:34:03;98252.84;;;28.93;41.55
57574;BME280;68988;49.000;21.242;2023-07-22T07:36:29;98256.38;;;28.93;41.67
57574;BME280;68988;49.000;21.242;2023-07-22T07:38:54;98253.97;;;28.92;41.66
57574;BME280;68988;49.000;21.242;2023-07-22T07:41:20;98253.78;;;28.88;41.50
57574;BME280;68988;49.000;21.242;2023-07-22T07:43:46;98256.16;;;28.90;41.78
57574;BME280;68988;49.000;21.242;2023-07-22T07:48:54;98253.03;;;28.97;41.66
57574;BME280;68988;49.000;21.242;2023-07-22T07:51:21;98251.75;;;28.94;41.79
57574;BME280;68988;49.000;21.242;2023-07-22T07:53:47;98253.34;;;28.95;41.67
57574;BME280;68988;49.000;21.242;2023-07-22T07:56:13;98261.44;;;28.95;41.46
57574;BME280;68988;49.000;21.242;2023-07-22T07:58:39;98267.94;;;28.94;41.92
57574;BME280;68988;49.000;21.242;2023-07-22T08:01:05;98257.16;;;28.94;41.71
57574;BME280;68988;49.000;21.242;2023-07-22T08:03:33;98256.53;;;28.97;41.69
57574;BME280;68988;49.000;21.242;2023-07-22T08:06:00;98254.94;;;28.96;41.77
57574;BME280;68988;49.000;21.242;2023-07-22T08:08:26;98253.03;;;28.97;41.75
57574;BME280;68988;49.000;21.242;2023-07-22T08:11:02;98257.19;;;29.03;41.56
57574;BME280;68988;49.000;21.242;2023-07-22T08:13:28;98263.53;;;28.98;41.75
57574;BME280;68988;49.000;21.242;2023-07-22T08:15:56;98261.94;;;28.97;41.64
57574;BME280;68988;49.000;21.242;2023-07-22T08:18:21;98261.94;;;28.97;41.60
57574;BME280;68988;49.000;21.242;2023-07-22T08:20:46;98268.41;;;28.96;41.66
57574;BME280;68988;49.000;21.242;2023-07-22T08:23:13;98268.13;;;28.98;41.59
57574;BME280;68988;49.000;21.242;2023-07-22T08:25:38;98272.72;;;28.97;41.70
57574;BME280;68988;49.000;21.242;2023-07-22T08:28:04;98278.13;;;28.97;41.65
57574;BME280;68988;49.000;21.242;2023-07-22T08:30:29;98271.13;;;28.96;41.58
57574;BME280;68988;49.000;21.242;2023-07-22T08:32:54;98277.03;;;28.98;41.61
57574;BME280;68988;49.000;21.242;2023-07-22T08:35:20;98275.91;;;28.99;41.51
57574;BME280;68988;49.000;21.242;2023-07-22T08:37:47;98277.81;;;28.99;41.61
57574;BME280;68988;49.000;21.242;2023-07-22T08:40:13;98275.41;;;28.97;41.70
57574;BME280;68988;49.000;21.242;2023-07-22T08:42:40;98275.91;;;28.99;41.68
57574;BME280;68988;49.000;21.242;2023-07-22T08:45:09;98283.53;;;28.97;41.58
57574;BME280;68988;49.000;21.242;2023-07-22T08:47:39;98279.72;;;28.98;41.40
57574;BME280;68988;49.000;21.242;2023-07-22T08:50:09;98281.13;;;28.96;41.45
57574;BME280;68988;49.000;21.242;2023-07-22T08:52:37;98280.34;;;28.95;41.70
57574;BME280;68988;49.000;21.242;2023-07-22T08:55:03;98278.13;;;28.97;41.52
57574;BME280;68988;49.000;21.242;2023-07-22T08:57:29;98278.13;;;28.97;41.56
57574;BME280;68988;49.000;21.242;2023-07-22T08:59:57;98279.72;;;28.98;41.71
57574;BME280;68988;49.000;21.242;2023-07-22T09:02:24;98278.91;;;28.98;41.62
57574;BME280;68988;49.000;21.242;2023-07-22T09:04:50;98275.91;;;28.99;41.57
57574;BME280;68988;49.000;21.242;2023-07-22T09:07:16;98275.13;;;28.99;41.51
57574;BME280;68988;49.000;21.242;2023-07-22T09:09:44;98270.50;;;28.99;41.58
57574;BME280;68988;49.000;21.242;2023-07-22T09:12:11;98268.94;;;28.98;41.51
57574;BME280;68988;49.000;21.242;2023-07-22T09:14:38;98278.28;;;29.01;41.45
57574;BME280;68988;49.000;21.242;2023-07-22T09:17:05;98278.13;;;28.97;41.52
57574;BME280;68988;49.000;21.242;2023-07-22T09:19:31;98271.63;;;28.98;41.65
57574;BME280;68988;49.000;21.242;2023-07-22T09:21:56;98272.41;;;28.99;41.45
57574;BME280;68988;49.000;21.242;2023-07-22T09:24:25;98265.41;;;28.98;41.53
57574;BME280;68988;49.000;21.242;2023-07-22T09:26:51;98267.31;;;28.97;41.51
57574;BME280;68988;49.000;21.242;2023-07-22T09:29:17;98266.72;;;29.00;41.54
57574;BME280;68988;49.000;21.242;2023-07-22T09:31:53;98272.09;;;29.00;41.59
57574;BME280;68988;49.000;21.242;2023-07-22T09:34:19;98266.53;;;28.97;41.57
57574;BME280;68988;49.000;21.242;2023-07-22T09:36:52;98267.31;;;28.97;41.60
57574;BME280;68988;49.000;21.242;2023-07-22T09:39:18;98264.16;;;28.95;41.58
57574;BME280;68988;49.000;21.242;2023-07-22T09:41:43;98257.94;;;28.94;41.47
57574;BME280;68988;49.000;21.242;2023-07-22T09:44:10;98263.94;;;28.91;41.59
57574;BME280;68988;49.000;21.242;2023-07-22T09:46:36;98270.34;;;28.96;41.45
57574;BME280;68988;49.000;21.242;2023-07-22T09:49:09;98270.50;;;28.99;41.41
57574;BME280;68988;49.000;21.242;2023-07-22T09:51:36;98272.72;;;28.97;41.50
57574;BME280;68988;49.000;21.242;2023-07-22T09:54:03;98273.03;;;28.96;41.40
57574;BME280;68988;49.000;21.242;2023-07-22T09:56:29;98283.53;;;28.97;41.56
57574;BME280;68988;49.000;21.242;2023-07-22T09:58:55;98289.69;;;28.89;41.58
57574;BME280;68988;49.000;21.242;2023-07-22T10:01:25;98283.16;;;28.90;41.54
57574;BME280;68988;49.000;21.242;2023-07-22T10:03:55;98287.94;;;28.93;41.46
57574;BME280;68988;49.000;21.242;2023-07-22T10:06:24;98298.16;;;29.05;41.44
57574;BME280;68988;49.000;21.242;2023-07-22T10:08:51;98302.88;;;28.90;41.74
57574;BME280;68988;49.000;21.242;2023-07-22T10:11:18;98292.19;;;28.85;41.52
57574;BME280;68988;49.000;21.242;2023-07-22T10:13:44;98301.56;;;28.88;41.51
57574;BME280;68988;49.000;21.242;2023-07-22T10:16:10;98294.25;;;28.88;41.76
57574;BME280;68988;49.000;21.242;2023-07-22T10:18:35;98295.19;;;28.84;41.66
57574;BME280;68988;49.000;21.242;2023-07-22T10:21:02;98294.56;;;28.87;41.70
57574;BME280;68988;49.000;21.242;2023-07-22T10:23:29;98308.38;;;28.85;41.77
57574;BME280;68988;49.000;21.242;2023-07-22T10:25:57;98305.06;;;28.88;41.70
57574;BME280;68988;49.000;21.242;2023-07-22T10:28:23;98310.75;;;28.87;41.80
57574;BME280;68988;49.000;21.242;2023-07-22T10:30:49;98314.75;;;28.89;41.50
57574;BME280;68988;49.000;21.242;2023-07-22T10:33:16;98313.97;;;28.89;41.63
57574;BME280;68988;49.000;21.242;2023-07-22T10:35:43;98301.56;;;28.88;41.91
57574;BME280;68988;49.000;21.242;2023-07-22T10:40:52;98308.13;;;28.96;41.36
57574;BME280;68988;49.000;21.242;2023-07-22T10:43:24;98311.75;;;28.91;41.66
57574;BME280;68988;49.000;21.242;2023-07-22T10:45:52;98312.28;;;29.02;41.31
57574;BME280;68988;49.000;21.242;2023-07-22T10:48:19;98325.38;;;28.86;42.00
57574;BME280;68988;49.000;21.242;2023-07-22T10:50:49;98328.38;;;28.84;41.78
57574;BME280;68988;49.000;21.242;2023-07-22T11:01:39;98327.31;;;28.94;41.34
57574;BME280;68988;49.000;21.242;2023-07-22T11:04:17;98325.25;;;28.91;41.48
57574;BME280;68988;49.000;21.242;2023-07-22T11:12:13;98329.16;;;28.85;41.62
57574;BME280;68988;49.000;21.242;2023-07-22T11:14:51;98334.88;;;28.83;41.40
57574;BME280;68988;49.000;21.242;2023-07-22T11:17:21;98325.84;;;28.88;41.52
57574;BME280;68988;49.000;21.242;2023-07-22T11:19:52;98319.47;;;28.84;41.45
57574;BME280;68988;49.000;21.242;2023-07-22T11:22:17;98314.69;;;28.81;41.25
57574;BME280;68988;49.000;21.242;2023-07-22T11:24:43;98319.00;;;28.82;41.52
57574;BME280;68988;49.000;21.242;2023-07-22T11:27:08;98316.97;;;28.87;41.28
57574;BME280;68988;49.000;21.242;2023-07-22T11:29:35;98322.16;;;28.84;41.54
57574;BME280;68988;49.000;21.242;2023-07-22T11:32:01;98327.41;;;28.80;41.37
57574;BME280;68988;49.000;21.242;2023-07-22T11:34:27;98325.16;;;28.82;41.32
57574;BME280;68988;49.000;21.242;2023-07-22T11:36:54;98309.97;;;28.86;41.37
57574;BME280;68988;49.000;21.242;2023-07-22T11:39:21;98316.47;;;28.85;41.26
57574;BME280;68988;49.000;21.242;2023-07-22T11:41:48;98319.16;;;28.85;41.25
57574;BME280;68988;49.000;21.242;2023-07-22T11:44:18;98315.69;;;28.85;41.22
57574;BME280;68988;49.000;21.242;2023-07-22T11:47:00;98313.97;;;28.89;41.31
57574;BME280;68988;49.000;21.242;2023-07-22T11:51:54;98335.56;;;28.89;41.19
57574;BME280;68988;49.000;21.242;2023-07-22T11:54:23;98337.75;;;28.87;41.50
57574;BME280;68988;49.000;21.242;2023-07-22T11:56:48;98341.56;;;28.86;41.35
57574;BME280;68988;49.000;21.242;2023-07-22T11:59:14;98336.16;;;28.86;40.95
57574;BME280;68988;49.000;21.242;2023-07-22T12:01:43;98328.69;;;28.83;41.08
57574;BME280;68988;49.000;21.242;2023-07-22T12:04:13;98333.78;;;28.84;40.96
57574;BME280;68988;49.000;21.242;2023-07-22T12:06:39;98329.31;;;28.80;41.01
57574;BME280;68988;49.000;21.242;2023-07-22T12:09:07;98339.47;;;28.83;41.16
57574;BME280;68988;49.000;21.242;2023-07-22T12:11:33;98332.47;;;28.82;40.82
57574;BME280;68988;49.000;21.242;2023-07-22T12:14:08;98334.88;;;28.83;40.94
57574;BME280;68988;49.000;21.242;2023-07-22T12:16:35;98331.19;;;28.79;41.10
57574;BME280;68988;49.000;21.242;2023-07-22T12:19:04;98336.28;;;28.81;40.95
57574;BME280;68988;49.000;21.242;2023-07-22T12:21:30;98336.41;;;28.75;41.26
57574;BME280;68988;49.000;21.242;2023-07-22T12:23:56;98336.09;;;28.77;41.25
57574;BME280;68988;49.000;21.242;2023-07-22T12:26:22;98328.00;;;28.77;41.08
57574;BME280;68988;49.000;21.242;2023-07-22T12:28:47;98338.19;;;28.80;41.10
57574;BME280;68988;49.000;21.242;2023-07-22T12:31:13;98336.41;;;28.75;41.06
57574;BME280;68988;49.000;21.242;2023-07-22T12:33:38;98344.03;;;28.73;41.01
57574;BME280;68988;49.000;21.242;2023-07-22T12:36:05;98352.59;;;28.75;41.14
57574;BME280;68988;49.000;21.242;2023-07-22T12:38:31;98362.41;;;28.71;41.16
57574;BME280;68988;49.000;21.242;2023-07-22T12:40:56;98367.78;;;28.71;41.08
57574;BME280;68988;49.000;21.242;2023-07-22T12:43:22;98370.00;;;28.69;41.51
57574;BME280;68988;49.000;21.242;2023-07-22T12:45:47;98380.50;;;28.71;41.26
57574;BME280;68988;49.000;21.242;2023-07-22T12:48:13;98376.50;;;28.68;41.17
57574;BME280;68988;49.000;21.242;2023-07-22T12:50:38;98387.28;;;28.68;41.42
57574;BME280;68988;49.000;21.242;2023-07-22T12:53:04;98390.19;;;28.72;41.29
57574;BME280;68988;49.000;21.242;2023-07-22T12:55:29;98385.09;;;28.70;41.63
57574;BME280;68988;49.000;21.242;2023-07-22T12:57:54;98378.09;;;28.69;41.70
57574;BME280;68988;49.000;21.242;2023-07-22T13:00:20;98373.78;;;28.68;41.57
57574;BME280;68988;49.000;21.242;2023-07-22T13:02:46;98367.31;;;28.69;41.69
57574;BME280;68988;49.000;21.242;2023-07-22T13:05:12;98368.91;;;28.70;41.69
57574;BME280;68988;49.000;21.242;2023-07-22T13:07:38;98368.41;;;28.68;41.91